createdAt,value
2018-04-25T00:00:01.025Z,0
2018-04-25T00:01:22.844Z,0
2018-04-25T00:02:44.925Z,0
2018-04-25T00:04:06.746Z,0
2018-04-25T00:05:28.824Z,0
2018-04-25T00:06:50.618Z,0
2018-04-25T00:08:12.423Z,0
2018-04-25T00:09:34.247Z,0
2018-04-25T00:10:56.030Z,0
2018-04-25T00:12:18.102Z,0
2018-04-25T00:13:40.158Z,0
2018-04-25T00:15:01.956Z,0
2018-04-25T00:16:23.838Z,0
2018-04-25T00:17:45.888Z,0
2018-04-25T00:19:07.699Z,0
2018-04-25T00:20:29.492Z,0
2018-04-25T00:21:51.291Z,0
2018-04-25T00:23:13.097Z,0
2018-04-25T00:24:34.705Z,0
2018-04-25T00:25:56.786Z,0
2018-04-25T00:27:18.594Z,0
2018-04-25T00:28:40.671Z,0
2018-04-25T00:30:02.485Z,0
2018-04-25T00:31:24.288Z,0
2018-04-25T00:32:46.084Z,0
2018-04-25T00:34:07.888Z,0
2018-04-25T00:35:29.974Z,0
2018-04-25T00:36:51.757Z,0
2018-04-25T00:38:13.563Z,0
2018-04-25T00:39:35.111Z,0
2018-04-25T00:40:56.906Z,0
2018-04-25T00:42:18.725Z,0
2018-04-25T00:43:40.257Z,0
2018-04-25T00:45:01.809Z,0
2018-04-25T00:46:23.342Z,0
2018-04-25T00:47:45.133Z,0
2018-04-25T00:49:06.395Z,0
2018-04-25T00:50:28.191Z,0
2018-04-25T00:51:50.249Z,0
2018-04-25T00:53:12.318Z,0
2018-04-25T00:54:34.110Z,0
2018-04-25T00:55:55.648Z,0
2018-04-25T00:57:17.692Z,0
2018-04-25T00:58:39.493Z,0
2018-04-25T01:00:01.293Z,0
2018-04-25T01:01:23.360Z,0
2018-04-25T01:02:45.473Z,0
2018-04-25T01:04:07.545Z,0
2018-04-25T01:05:29.086Z,0
2018-04-25T01:06:50.884Z,0
2018-04-25T01:08:12.953Z,0
2018-04-25T01:09:34.745Z,0
2018-04-25T01:10:56.547Z,0
2018-04-25T01:12:18.577Z,0
2018-04-25T01:13:40.383Z,0
2018-04-25T01:15:02.453Z,0
2018-04-25T01:16:24.523Z,0
2018-04-25T01:17:46.579Z,0
2018-04-25T01:19:08.404Z,0
2018-04-25T01:20:30.206Z,0
2018-04-25T01:21:52.269Z,0
2018-04-25T01:23:14.072Z,0
2018-04-25T01:24:36.182Z,0
2018-04-25T01:25:57.973Z,0
2018-04-25T01:27:19.497Z,0
2018-04-25T01:28:41.032Z,0
2018-04-25T01:30:03.092Z,0
2018-04-25T01:31:24.891Z,0
2018-04-25T01:32:46.963Z,0
2018-04-25T01:34:08.776Z,0
2018-04-25T01:35:30.316Z,0
2018-04-25T01:36:52.356Z,0
2018-04-25T01:38:14.161Z,0
2018-04-25T01:39:35.697Z,0
2018-04-25T01:40:57.763Z,0
2018-04-25T01:42:19.560Z,0
2018-04-25T01:43:41.355Z,0
2018-04-25T01:45:03.157Z,0
2018-04-25T01:46:25.232Z,0
2018-04-25T01:47:47.020Z,0
2018-04-25T01:49:09.069Z,0
2018-04-25T01:50:30.604Z,0
2018-04-25T01:51:52.721Z,0
2018-04-25T01:53:14.778Z,0
2018-04-25T01:54:36.828Z,0
2018-04-25T01:55:58.615Z,0
2018-04-25T01:57:20.411Z,0
2018-04-25T01:58:42.255Z,0
2018-04-25T02:00:04.326Z,0
2018-04-25T02:01:26.129Z,0
2018-04-25T02:02:48.185Z,0
2018-04-25T02:04:10.240Z,0
2018-04-25T02:05:32.035Z,0
2018-04-25T02:06:54.088Z,0
2018-04-25T02:08:16.147Z,0
2018-04-25T02:09:37.945Z,0
2018-04-25T02:10:59.735Z,0
2018-04-25T02:12:21.816Z,0
2018-04-25T02:13:43.628Z,0
2018-04-25T02:15:05.422Z,0
2018-04-25T02:16:27.222Z,0
2018-04-25T02:17:49.285Z,0
2018-04-25T02:19:11.368Z,0
2018-04-25T02:20:33.148Z,0
2018-04-25T02:21:54.947Z,0
2018-04-25T02:23:16.992Z,0
2018-04-25T02:24:39.053Z,0
2018-04-25T02:26:01.118Z,0
2018-04-25T02:27:22.681Z,0
2018-04-25T02:28:44.759Z,0
2018-04-25T02:30:05.778Z,0
2018-04-25T02:31:27.841Z,0
2018-04-25T02:32:49.889Z,0
2018-04-25T02:34:11.992Z,0
2018-04-25T02:35:33.820Z,0
2018-04-25T02:36:55.612Z,0
2018-04-25T02:38:17.418Z,0
2018-04-25T02:39:39.221Z,0
2018-04-25T02:41:01.303Z,0
2018-04-25T02:42:22.852Z,0
2018-04-25T02:43:44.922Z,0
2018-04-25T02:45:06.762Z,0
2018-04-25T02:46:28.299Z,0
2018-04-25T02:47:50.100Z,0
2018-04-25T02:49:11.383Z,0
2018-04-25T02:50:33.448Z,0
2018-04-25T02:51:55.261Z,0
2018-04-25T02:53:17.338Z,0
2018-04-25T02:54:39.144Z,0
2018-04-25T02:56:00.677Z,0
2018-04-25T02:57:21.948Z,0
2018-04-25T02:58:43.508Z,0
2018-04-25T03:00:05.566Z,0
2018-04-25T03:01:27.629Z,0
2018-04-25T03:02:49.422Z,0
2018-04-25T03:04:11.210Z,0
2018-04-25T03:05:33.271Z,0
2018-04-25T03:06:54.834Z,0
2018-04-25T03:08:16.907Z,0
2018-04-25T03:09:38.953Z,0
2018-04-25T03:11:01.028Z,0
2018-04-25T03:12:22.846Z,0
2018-04-25T03:13:44.650Z,0
2018-04-25T03:15:06.704Z,0
2018-04-25T03:16:28.512Z,0
2018-04-25T03:17:50.572Z,0
2018-04-25T03:19:12.635Z,0
2018-04-25T03:20:34.446Z,0
2018-04-25T03:21:56.323Z,0
2018-04-25T03:23:17.860Z,0
2018-04-25T03:24:39.663Z,0
2018-04-25T03:26:01.462Z,0
2018-04-25T03:27:23.259Z,0
2018-04-25T03:28:45.043Z,0
2018-04-25T03:30:07.126Z,0
2018-04-25T03:31:29.184Z,0
2018-04-25T03:32:50.977Z,0
2018-04-25T03:34:12.504Z,0
2018-04-25T03:35:34.055Z,0
2018-04-25T03:36:56.126Z,0
2018-04-25T03:38:17.922Z,0
2018-04-25T03:39:39.462Z,0
2018-04-25T03:41:01.259Z,0
2018-04-25T03:42:22.877Z,0
2018-04-25T03:43:44.422Z,0
2018-04-25T03:45:06.486Z,0
2018-04-25T03:46:28.543Z,0
2018-04-25T03:47:50.603Z,0
2018-04-25T03:49:12.399Z,0
2018-04-25T03:50:34.468Z,0
2018-04-25T03:51:55.740Z,0
2018-04-25T03:53:17.801Z,0
2018-04-25T03:54:39.603Z,0
2018-04-25T03:56:01.161Z,0
2018-04-25T03:57:22.960Z,0
2018-04-25T03:58:44.485Z,0
2018-04-25T04:00:06.544Z,0
2018-04-25T04:01:28.341Z,0
2018-04-25T04:02:49.868Z,0
2018-04-25T04:04:11.660Z,0
2018-04-25T04:05:33.458Z,0
2018-04-25T04:06:55.522Z,0
2018-04-25T04:08:16.824Z,5
2018-04-25T04:09:38.366Z,5
2018-04-25T04:11:00.204Z,5
2018-04-25T04:12:21.996Z,5
2018-04-25T04:13:43.983Z,10
2018-04-25T04:15:05.786Z,10
2018-04-25T04:16:27.594Z,10
2018-04-25T04:17:49.655Z,10
2018-04-25T04:19:11.451Z,10
2018-04-25T04:20:33.519Z,10
2018-04-25T04:21:55.592Z,15
2018-04-25T04:23:17.413Z,15
2018-04-25T04:24:39.466Z,15
2018-04-25T04:26:01.531Z,15
2018-04-25T04:27:23.608Z,15
2018-04-25T04:28:45.409Z,15
2018-04-25T04:30:07.484Z,15
2018-04-25T04:31:29.558Z,15
2018-04-25T04:32:51.619Z,15
2018-04-25T04:34:13.691Z,20
2018-04-25T04:35:35.230Z,20
2018-04-25T04:36:57.027Z,15
2018-04-25T04:38:18.835Z,15
2018-04-25T04:39:40.918Z,15
2018-04-25T04:41:02.990Z,15
2018-04-25T04:42:25.037Z,20
2018-04-25T04:43:47.108Z,25
2018-04-25T04:45:09.172Z,30
2018-04-25T04:46:31.233Z,40
2018-04-25T04:47:52.770Z,40
2018-04-25T04:49:14.574Z,40
2018-04-25T04:50:36.631Z,40
2018-04-25T04:51:57.912Z,55
2018-04-25T04:53:19.435Z,60
2018-04-25T04:54:41.492Z,55
2018-04-25T04:56:03.547Z,50
2018-04-25T04:57:24.815Z,55
2018-04-25T04:58:46.617Z,60
2018-04-25T05:00:08.561Z,60
2018-04-25T05:01:30.122Z,60
2018-04-25T05:02:52.188Z,55
2018-04-25T05:04:13.728Z,50
2018-04-25T05:05:35.806Z,40
2018-04-25T05:06:57.605Z,40
2018-04-25T05:08:19.742Z,40
2018-04-25T05:09:41.287Z,40
2018-04-25T05:11:03.354Z,55
2018-04-25T05:12:24.620Z,90
2018-04-25T05:13:46.408Z,125
2018-04-25T05:15:08.222Z,120
2018-04-25T05:16:30.293Z,95
2018-04-25T05:17:52.087Z,70
2018-04-25T05:19:14.155Z,55
2018-04-25T05:20:35.955Z,60
2018-04-25T05:21:58.018Z,40
2018-04-25T05:23:20.082Z,40
2018-04-25T05:24:42.199Z,55
2018-04-25T05:26:04.293Z,65
2018-04-25T05:27:25.836Z,70
2018-04-25T05:28:47.660Z,55
2018-04-25T05:30:09.729Z,75
2018-04-25T05:31:31.542Z,85
2018-04-25T05:32:53.339Z,90
2018-04-25T05:34:15.134Z,75
2018-04-25T05:35:37.201Z,75
2018-04-25T05:36:59.002Z,60
2018-04-25T05:38:21.074Z,55
2018-04-25T05:39:43.155Z,75
2018-04-25T05:41:04.963Z,50
2018-04-25T05:42:26.770Z,40
2018-04-25T05:43:48.839Z,50
2018-04-25T05:45:10.928Z,110
2018-04-25T05:46:32.996Z,95
2018-04-25T05:47:55.069Z,125
2018-04-25T05:49:17.129Z,125
2018-04-25T05:50:39.224Z,80
2018-04-25T05:52:01.180Z,115
2018-04-25T05:53:22.964Z,120
2018-04-25T05:54:45.042Z,80
2018-04-25T05:56:06.587Z,60
2018-04-25T05:57:28.652Z,50
2018-04-25T05:58:50.719Z,35
2018-04-25T06:00:12.511Z,35
2018-04-25T06:01:34.594Z,70
2018-04-25T06:02:56.132Z,100
2018-04-25T06:04:18.208Z,100
2018-04-25T06:05:40.007Z,175
2018-04-25T06:07:02.079Z,250
2018-04-25T06:08:24.227Z,290
2018-04-25T06:09:46.297Z,290
2018-04-25T06:11:08.347Z,290
2018-04-25T06:12:29.619Z,280
2018-04-25T06:13:51.441Z,280
2018-04-25T06:15:12.985Z,295
2018-04-25T06:16:34.545Z,275
2018-04-25T06:17:56.673Z,260
2018-04-25T06:19:18.734Z,195
2018-04-25T06:20:40.612Z,185
2018-04-25T06:22:02.416Z,220
2018-04-25T06:23:24.479Z,250
2018-04-25T06:24:46.286Z,480
2018-04-25T06:26:08.348Z,240
2018-04-25T06:27:30.424Z,460
2018-04-25T06:28:52.241Z,475
2018-04-25T06:30:14.062Z,490
2018-04-25T06:31:36.144Z,475
2018-04-25T06:32:58.224Z,420
2018-04-25T06:34:20.031Z,410
2018-04-25T06:35:41.917Z,285
2018-04-25T06:37:03.745Z,225
2018-04-25T06:38:25.823Z,175
2018-04-25T06:39:47.729Z,215
2018-04-25T06:41:09.554Z,345
2018-04-25T06:42:30.821Z,535
2018-04-25T06:43:52.910Z,345
2018-04-25T06:45:15.136Z,355
2018-04-25T06:46:37.220Z,300
2018-04-25T06:47:59.032Z,320
2018-04-25T06:49:21.121Z,235
2018-04-25T06:50:42.924Z,240
2018-04-25T06:52:04.483Z,215
2018-04-25T06:53:26.019Z,240
2018-04-25T06:54:48.097Z,245
2018-04-25T06:56:09.666Z,205
2018-04-25T06:57:31.231Z,185
2018-04-25T06:58:53.297Z,185
2018-04-25T07:00:15.362Z,250
2018-04-25T07:01:37.192Z,290
2018-04-25T07:02:59.271Z,530
2018-04-25T07:04:21.095Z,300
2018-04-25T07:05:42.935Z,385
2018-04-25T07:07:04.764Z,340
2018-04-25T07:08:27.079Z,555
2018-04-25T07:09:48.880Z,405
2018-04-25T07:11:10.429Z,550
2018-04-25T07:12:32.257Z,550
2018-04-25T07:13:54.356Z,230
2018-04-25T07:15:16.163Z,525
2018-04-25T07:16:38.251Z,525
2018-04-25T07:18:00.136Z,270
2018-04-25T07:19:22.230Z,330
2018-04-25T07:20:44.082Z,425
2018-04-25T07:22:06.151Z,320
2018-04-25T07:23:27.967Z,305
2018-04-25T07:24:50.047Z,490
2018-04-25T07:26:12.150Z,515
2018-04-25T07:27:34.229Z,325
2018-04-25T07:28:56.318Z,620
2018-04-25T07:30:18.130Z,305
2018-04-25T07:31:40.222Z,370
2018-04-25T07:33:02.329Z,620
2018-04-25T07:34:24.402Z,360
2018-04-25T07:35:46.302Z,685
2018-04-25T07:37:08.391Z,350
2018-04-25T07:38:30.480Z,300
2018-04-25T07:39:52.570Z,170
2018-04-25T07:41:14.641Z,120
2018-04-25T07:42:36.450Z,135
2018-04-25T07:43:57.991Z,155
2018-04-25T07:45:19.789Z,255
2018-04-25T07:46:41.989Z,295
2018-04-25T07:48:04.071Z,335
2018-04-25T07:49:25.627Z,310
2018-04-25T07:50:46.926Z,405
2018-04-25T07:52:09.080Z,405
2018-04-25T07:53:31.161Z,535
2018-04-25T07:54:53.239Z,340
2018-04-25T07:56:15.038Z,185
2018-04-25T07:57:37.127Z,280
2018-04-25T07:58:59.200Z,285
2018-04-25T08:00:21.349Z,290
2018-04-25T08:01:43.159Z,230
2018-04-25T08:03:05.261Z,195
2018-04-25T08:04:27.343Z,225
2018-04-25T08:05:49.408Z,155
2018-04-25T08:07:11.209Z,150
2018-04-25T08:08:32.751Z,170
2018-04-25T08:09:54.547Z,190
2018-04-25T08:11:16.360Z,250
2018-04-25T08:12:38.298Z,285
2018-04-25T08:14:00.372Z,270
2018-04-25T08:15:22.441Z,255
2018-04-25T08:16:44.495Z,260
2018-04-25T08:18:06.246Z,240
2018-04-25T08:19:27.785Z,255
2018-04-25T08:20:49.594Z,375
2018-04-25T08:22:11.673Z,420
2018-04-25T08:23:33.511Z,330
2018-04-25T08:24:55.599Z,295
2018-04-25T08:26:17.166Z,420
2018-04-25T08:27:39.233Z,395
2018-04-25T08:29:01.396Z,370
2018-04-25T08:30:23.465Z,485
2018-04-25T08:31:45.289Z,390
2018-04-25T08:33:07.095Z,415
2018-04-25T08:34:28.744Z,320
2018-04-25T08:35:50.837Z,420
2018-04-25T08:37:12.914Z,330
2018-04-25T08:38:34.976Z,380
2018-04-25T08:39:57.051Z,450
2018-04-25T08:41:18.860Z,330
2018-04-25T08:42:40.668Z,285
2018-04-25T08:44:02.489Z,265
2018-04-25T08:45:24.396Z,355
2018-04-25T08:46:46.223Z,485
2018-04-25T08:48:08.022Z,380
2018-04-25T08:49:29.819Z,310
2018-04-25T08:50:51.908Z,340
2018-04-25T08:52:13.453Z,355
2018-04-25T08:53:35.527Z,385
2018-04-25T08:54:57.336Z,430
2018-04-25T08:56:19.186Z,335
2018-04-25T08:57:40.985Z,270
2018-04-25T08:59:03.049Z,310
2018-04-25T09:00:24.851Z,365
2018-04-25T09:01:46.404Z,290
2018-04-25T09:03:08.492Z,375
2018-04-25T09:04:30.619Z,505
2018-04-25T09:05:52.546Z,460
2018-04-25T09:07:14.392Z,430
2018-04-25T09:08:36.470Z,480
2018-04-25T09:09:58.036Z,305
2018-04-25T09:11:20.127Z,250
2018-04-25T09:12:42.175Z,180
2018-04-25T09:14:03.979Z,170
2018-04-25T09:15:25.575Z,160
2018-04-25T09:16:47.642Z,165
2018-04-25T09:18:09.437Z,145
2018-04-25T09:19:31.519Z,150
2018-04-25T09:20:53.596Z,215
2018-04-25T09:22:15.745Z,255
2018-04-25T09:23:37.827Z,275
2018-04-25T09:25:00.047Z,245
2018-04-25T09:26:22.125Z,275
2018-04-25T09:27:43.920Z,320
2018-04-25T09:29:06.007Z,295
2018-04-25T09:30:28.074Z,440
2018-04-25T09:31:49.881Z,405
2018-04-25T09:33:11.966Z,325
2018-04-25T09:34:33.949Z,285
2018-04-25T09:35:56.023Z,405
2018-04-25T09:37:17.846Z,440
2018-04-25T09:38:39.380Z,445
2018-04-25T09:40:01.279Z,355
2018-04-25T09:41:23.347Z,190
2018-04-25T09:42:45.245Z,150
2018-04-25T09:44:07.315Z,130
2018-04-25T09:45:29.386Z,125
2018-04-25T09:46:51.447Z,100
2018-04-25T09:48:13.531Z,100
2018-04-25T09:49:35.336Z,100
2018-04-25T09:50:57.383Z,100
2018-04-25T09:52:18.676Z,95
2018-04-25T09:53:40.501Z,95
2018-04-25T09:55:02.305Z,105
2018-04-25T09:56:24.391Z,135
2018-04-25T09:57:46.783Z,135
2018-04-25T09:59:08.285Z,120
2018-04-25T10:00:30.180Z,115
2018-04-25T10:01:52.258Z,100
2018-04-25T10:03:14.066Z,95
2018-04-25T10:04:36.132Z,120
2018-04-25T10:05:58.196Z,120
2018-04-25T10:07:20.263Z,150
2018-04-25T10:08:41.797Z,125
2018-04-25T10:10:03.862Z,140
2018-04-25T10:11:25.682Z,125
2018-04-25T10:12:47.732Z,165
2018-04-25T10:14:09.550Z,150
2018-04-25T10:15:31.819Z,170
2018-04-25T10:16:53.937Z,270
2018-04-25T10:18:15.720Z,240
2018-04-25T10:19:37.270Z,255
2018-04-25T10:20:58.843Z,255
2018-04-25T10:22:20.652Z,195
2018-04-25T10:23:42.720Z,215
2018-04-25T10:25:04.808Z,225
2018-04-25T10:26:26.897Z,185
2018-04-25T10:27:48.977Z,205
2018-04-25T10:29:11.040Z,260
2018-04-25T10:30:32.831Z,235
2018-04-25T10:31:54.894Z,250
2018-04-25T10:33:16.952Z,225
2018-04-25T10:34:38.781Z,375
2018-04-25T10:36:00.867Z,375
2018-04-25T10:37:22.952Z,400
2018-04-25T10:38:44.521Z,400
2018-04-25T10:40:06.592Z,450
2018-04-25T10:41:28.649Z,435
2018-04-25T10:42:50.457Z,410
2018-04-25T10:44:12.352Z,335
2018-04-25T10:45:34.479Z,260
2018-04-25T10:46:56.271Z,250
2018-04-25T10:48:18.110Z,245
2018-04-25T10:49:40.175Z,215
2018-04-25T10:51:01.993Z,255
2018-04-25T10:52:24.083Z,270
2018-04-25T10:53:46.135Z,285
2018-04-25T10:55:07.946Z,325
2018-04-25T10:56:30.037Z,475
2018-04-25T10:57:51.321Z,510
2018-04-25T10:59:13.395Z,470
2018-04-25T11:00:35.226Z,500
2018-04-25T11:01:56.783Z,425
2018-04-25T11:03:18.860Z,315
2018-04-25T11:04:41.010Z,220
2018-04-25T11:06:02.819Z,190
2018-04-25T11:07:25.000Z,155
2018-04-25T11:08:46.455Z,130
2018-04-25T11:10:08.526Z,115
2018-04-25T11:11:30.582Z,105
2018-04-25T11:12:52.382Z,105
2018-04-25T11:14:14.457Z,110
2018-04-25T11:15:36.531Z,110
2018-04-25T11:16:58.599Z,115
2018-04-25T11:18:20.655Z,130
2018-04-25T11:19:42.445Z,150
2018-04-25T11:21:04.252Z,170
2018-04-25T11:22:26.058Z,155
2018-04-25T11:23:47.596Z,150
2018-04-25T11:25:09.688Z,160
2018-04-25T11:26:31.813Z,150
2018-04-25T11:27:53.366Z,180
2018-04-25T11:29:15.443Z,160
2018-04-25T11:30:37.246Z,145
2018-04-25T11:31:59.523Z,155
2018-04-25T11:33:21.610Z,180
2018-04-25T11:34:43.681Z,220
2018-04-25T11:36:05.749Z,190
2018-04-25T11:37:27.578Z,215
2018-04-25T11:38:49.695Z,215
2018-04-25T11:40:11.772Z,240
2018-04-25T11:41:33.824Z,310
2018-04-25T11:42:55.901Z,300
2018-04-25T11:44:17.442Z,260
2018-04-25T11:45:38.983Z,225
2018-04-25T11:47:00.811Z,205
2018-04-25T11:48:22.894Z,195
2018-04-25T11:49:44.997Z,265
2018-04-25T11:51:07.072Z,190
2018-04-25T11:52:28.899Z,155
2018-04-25T11:53:50.714Z,215
2018-04-25T11:55:12.529Z,180
2018-04-25T11:56:34.073Z,180
2018-04-25T11:57:55.883Z,190
2018-04-25T11:59:17.960Z,165
2018-04-25T12:00:40.023Z,165
2018-04-25T12:02:01.844Z,145
2018-04-25T12:03:23.928Z,220
2018-04-25T12:04:46.039Z,220
2018-04-25T12:06:07.871Z,290
2018-04-25T12:07:29.922Z,310
2018-04-25T12:08:51.753Z,290
2018-04-25T12:10:13.832Z,270
2018-04-25T12:11:35.408Z,275
2018-04-25T12:12:57.456Z,245
2018-04-25T12:14:19.010Z,285
2018-04-25T12:15:41.102Z,290
2018-04-25T12:17:02.892Z,220
2018-04-25T12:18:24.447Z,220
2018-04-25T12:19:45.996Z,185
2018-04-25T12:21:07.562Z,200
2018-04-25T12:22:29.613Z,220
2018-04-25T12:23:51.165Z,215
2018-04-25T12:25:12.715Z,185
2018-04-25T12:26:34.552Z,165
2018-04-25T12:27:56.108Z,135
2018-04-25T12:29:17.930Z,140
2018-04-25T12:30:39.728Z,195
2018-04-25T12:32:01.795Z,180
2018-04-25T12:33:23.618Z,195
2018-04-25T12:34:45.444Z,195
2018-04-25T12:36:07.765Z,150
2018-04-25T12:37:29.919Z,210
2018-04-25T12:38:51.734Z,320
2018-04-25T12:40:13.586Z,345
2018-04-25T12:41:35.424Z,330
2018-04-25T12:42:56.985Z,285
2018-04-25T12:44:19.098Z,280
2018-04-25T12:45:40.921Z,265
2018-04-25T12:47:03.011Z,255
2018-04-25T12:48:25.089Z,235
2018-04-25T12:49:46.648Z,215
2018-04-25T12:51:08.459Z,245
2018-04-25T12:52:30.291Z,290
2018-04-25T12:53:52.389Z,300
2018-04-25T12:55:14.510Z,410
2018-04-25T12:56:36.596Z,420
2018-04-25T12:57:58.683Z,445
2018-04-25T12:59:20.766Z,425
2018-04-25T13:00:42.327Z,430
2018-04-25T13:02:04.546Z,365
2018-04-25T13:03:26.409Z,390
2018-04-25T13:04:47.983Z,285
2018-04-25T13:06:10.101Z,420
2018-04-25T13:07:32.197Z,450
2018-04-25T13:08:54.086Z,440
2018-04-25T13:10:16.185Z,465
2018-04-25T13:11:38.257Z,450
2018-04-25T13:12:59.812Z,460
2018-04-25T13:14:21.891Z,485
2018-04-25T13:15:43.988Z,485
2018-04-25T13:17:05.816Z,495
2018-04-25T13:18:27.935Z,500
2018-04-25T13:19:50.027Z,495
2018-04-25T13:21:12.127Z,475
2018-04-25T13:22:33.977Z,450
2018-04-25T13:23:56.060Z,425
2018-04-25T13:25:17.877Z,380
2018-04-25T13:26:39.961Z,375
2018-04-25T13:28:01.785Z,410
2018-04-25T13:29:23.617Z,335
2018-04-25T13:30:45.452Z,285
2018-04-25T13:32:07.566Z,280
2018-04-25T13:33:29.418Z,245
2018-04-25T13:34:51.260Z,250
2018-04-25T13:36:13.342Z,295
2018-04-25T13:37:35.438Z,250
2018-04-25T13:38:57.262Z,255
2018-04-25T13:40:19.130Z,300
2018-04-25T13:41:40.968Z,420
2018-04-25T13:43:02.789Z,415
2018-04-25T13:44:24.360Z,375
2018-04-25T13:45:45.907Z,365
2018-04-25T13:47:07.834Z,330
2018-04-25T13:48:29.941Z,320
2018-04-25T13:49:52.057Z,305
2018-04-25T13:51:13.901Z,300
2018-04-25T13:52:36.119Z,255
2018-04-25T13:53:58.215Z,265
2018-04-25T13:55:20.024Z,325
2018-04-25T13:56:41.566Z,315
2018-04-25T13:58:03.674Z,330
2018-04-25T13:59:25.760Z,365
2018-04-25T14:00:47.727Z,365
2018-04-25T14:02:09.835Z,375
2018-04-25T14:03:31.913Z,360
2018-04-25T14:04:53.485Z,340
2018-04-25T14:06:15.519Z,305
2018-04-25T14:07:37.330Z,280
2018-04-25T14:08:59.402Z,295
2018-04-25T14:10:21.462Z,285
2018-04-25T14:11:43.307Z,265
2018-04-25T14:13:05.366Z,235
2018-04-25T14:14:27.209Z,230
2018-04-25T14:15:48.757Z,235
2018-04-25T14:17:10.580Z,235
2018-04-25T14:18:32.135Z,220
2018-04-25T14:19:54.233Z,220
2018-04-25T14:21:16.077Z,235
2018-04-25T14:22:37.873Z,245
2018-04-25T14:23:59.695Z,250
2018-04-25T14:25:21.531Z,280
2018-04-25T14:26:43.082Z,255
2018-04-25T14:28:04.911Z,250
2018-04-25T14:29:27.029Z,265
2018-04-25T14:30:49.101Z,300
2018-04-25T14:32:11.223Z,295
2018-04-25T14:33:33.329Z,285
2018-04-25T14:34:55.425Z,290
2018-04-25T14:36:17.544Z,305
2018-04-25T14:37:39.637Z,250
2018-04-25T14:39:01.432Z,205
2018-04-25T14:40:22.994Z,175
2018-04-25T14:41:44.546Z,145
2018-04-25T14:43:06.649Z,130
2018-04-25T14:44:28.728Z,125
2018-04-25T14:45:50.558Z,140
2018-04-25T14:47:11.852Z,145
2018-04-25T14:48:34.173Z,145
2018-04-25T14:49:56.018Z,145
2018-04-25T14:51:18.147Z,135
2018-04-25T14:52:39.985Z,125
2018-04-25T14:54:01.801Z,115
2018-04-25T14:55:23.904Z,110
2018-04-25T14:56:45.736Z,105
2018-04-25T14:58:07.543Z,100
2018-04-25T14:59:29.655Z,105
2018-04-25T15:00:51.748Z,105
2018-04-25T15:02:13.610Z,115
2018-04-25T15:03:35.697Z,130
2018-04-25T15:04:57.838Z,125
2018-04-25T15:06:19.684Z,120
2018-04-25T15:07:41.748Z,130
2018-04-25T15:09:03.894Z,140
2018-04-25T15:10:25.707Z,135
2018-04-25T15:11:47.796Z,115
2018-04-25T15:13:09.669Z,100
2018-04-25T15:14:31.759Z,95
2018-04-25T15:15:53.853Z,85
2018-04-25T15:17:15.929Z,80
2018-04-25T15:18:38.049Z,95
2018-04-25T15:19:59.860Z,150
2018-04-25T15:21:21.622Z,170
2018-04-25T15:22:43.719Z,185
2018-04-25T15:24:05.566Z,190
2018-04-25T15:25:26.886Z,180
2018-04-25T15:26:49.014Z,180
2018-04-25T15:28:10.844Z,190
2018-04-25T15:29:32.953Z,210
2018-04-25T15:30:55.047Z,250
2018-04-25T15:32:17.195Z,290
2018-04-25T15:33:39.296Z,310
2018-04-25T15:35:01.132Z,310
2018-04-25T15:36:23.234Z,310
2018-04-25T15:37:45.076Z,300
2018-04-25T15:39:07.415Z,305
2018-04-25T15:40:29.263Z,305
2018-04-25T15:41:51.459Z,270
2018-04-25T15:43:13.583Z,230
2018-04-25T15:44:35.418Z,215
2018-04-25T15:45:56.981Z,215
2018-04-25T15:47:18.543Z,230
2018-04-25T15:48:40.617Z,235
2018-04-25T15:50:02.730Z,245
2018-04-25T15:51:24.559Z,260
2018-04-25T15:52:46.372Z,265
2018-04-25T15:54:08.513Z,250
2018-04-25T15:55:30.339Z,225
2018-04-25T15:56:52.441Z,220
2018-04-25T15:58:14.547Z,250
2018-04-25T15:59:36.673Z,260
2018-04-25T16:00:57.998Z,230
2018-04-25T16:02:19.828Z,200
2018-04-25T16:03:42.035Z,175
2018-04-25T16:05:03.858Z,150
2018-04-25T16:06:25.952Z,135
2018-04-25T16:07:48.029Z,135
2018-04-25T16:09:09.872Z,115
2018-04-25T16:10:31.989Z,125
2018-04-25T16:11:53.905Z,130
2018-04-25T16:13:16.047Z,130
2018-04-25T16:14:37.912Z,140
2018-04-25T16:16:00.049Z,140
2018-04-25T16:17:22.096Z,130
2018-04-25T16:18:44.226Z,105
2018-04-25T16:20:06.400Z,90
2018-04-25T16:21:28.464Z,85
2018-04-25T16:22:50.682Z,85
2018-04-25T16:24:12.537Z,85
2018-04-25T16:25:34.747Z,95
2018-04-25T16:26:56.881Z,90
2018-04-25T16:28:19.004Z,85
2018-04-25T16:29:41.127Z,105
2018-04-25T16:31:03.523Z,115
2018-04-25T16:32:25.654Z,110
2018-04-25T16:33:47.780Z,115
2018-04-25T16:35:09.895Z,125
2018-04-25T16:36:31.926Z,125
2018-04-25T16:37:54.046Z,125
2018-04-25T16:39:16.159Z,150
2018-04-25T16:40:38.282Z,180
2018-04-25T16:42:00.160Z,185
2018-04-25T16:43:22.264Z,140
2018-04-25T16:44:44.224Z,125
2018-04-25T16:46:06.061Z,115
2018-04-25T16:47:27.624Z,120
2018-04-25T16:48:49.723Z,125
2018-04-25T16:50:11.049Z,130
2018-04-25T16:51:33.136Z,135
2018-04-25T16:52:54.978Z,130
2018-04-25T16:54:17.110Z,140
2018-04-25T16:55:39.221Z,145
2018-04-25T16:57:01.347Z,110
2018-04-25T16:58:23.462Z,105
2018-04-25T16:59:45.328Z,130
2018-04-25T17:01:07.440Z,135
2018-04-25T17:02:29.549Z,130
2018-04-25T17:03:51.410Z,130
2018-04-25T17:05:13.247Z,140
2018-04-25T17:06:35.090Z,135
2018-04-25T17:07:57.218Z,115
2018-04-25T17:09:19.065Z,125
2018-04-25T17:10:40.923Z,125
2018-04-25T17:12:03.040Z,130
2018-04-25T17:13:25.151Z,135
2018-04-25T17:14:47.293Z,145
2018-04-25T17:16:09.396Z,170
2018-04-25T17:17:31.240Z,170
2018-04-25T17:18:53.361Z,130
2018-04-25T17:20:15.225Z,100
2018-04-25T17:21:37.371Z,85
2018-04-25T17:22:59.358Z,90
2018-04-25T17:24:21.228Z,90
2018-04-25T17:25:43.352Z,90
2018-04-25T17:27:05.444Z,90
2018-04-25T17:28:27.349Z,85
2018-04-25T17:29:49.217Z,75
2018-04-25T17:31:11.320Z,60
2018-04-25T17:32:33.168Z,60
2018-04-25T17:33:55.291Z,55
2018-04-25T17:35:17.135Z,50
2018-04-25T17:36:39.279Z,45
2018-04-25T17:38:01.407Z,40
2018-04-25T17:39:22.955Z,40
2018-04-25T17:40:44.804Z,45
2018-04-25T17:42:06.922Z,50
2018-04-25T17:43:29.037Z,50
2018-04-25T17:44:50.910Z,50
2018-04-25T17:46:13.019Z,45
2018-04-25T17:47:34.866Z,40
2018-04-25T17:48:56.222Z,35
2018-04-25T17:50:18.395Z,35
2018-04-25T17:51:40.510Z,30
2018-04-25T17:53:02.644Z,25
2018-04-25T17:54:24.522Z,25
2018-04-25T17:55:46.656Z,20
2018-04-25T17:57:08.797Z,20
2018-04-25T17:58:30.966Z,20
2018-04-25T17:59:52.862Z,20
2018-04-25T18:01:14.819Z,20
2018-04-25T18:02:36.926Z,20
2018-04-25T18:03:58.791Z,10
2018-04-25T18:05:20.916Z,10
2018-04-25T18:06:43.018Z,10
2018-04-25T18:08:05.135Z,10
2018-04-25T18:09:27.015Z,5
2018-04-25T18:10:48.840Z,5
2018-04-25T18:12:10.687Z,5
2018-04-25T18:13:32.818Z,5
2018-04-25T18:14:54.974Z,5
2018-04-25T18:16:16.551Z,0
2018-04-25T18:17:38.688Z,0
2018-04-25T18:19:00.281Z,0
2018-04-25T18:20:22.139Z,0
2018-04-25T18:21:44.033Z,0
2018-04-25T18:23:06.168Z,0
2018-04-25T18:24:28.297Z,0
2018-04-25T18:25:50.211Z,5
2018-04-25T18:27:11.789Z,5
2018-04-25T18:28:33.938Z,10
2018-04-25T18:29:55.948Z,10
2018-04-25T18:31:17.792Z,10
2018-04-25T18:32:39.383Z,10
2018-04-25T18:34:01.516Z,5
2018-04-25T18:35:23.642Z,5
2018-04-25T18:36:45.492Z,5
2018-04-25T18:38:07.638Z,5
2018-04-25T18:39:29.810Z,5
2018-04-25T18:40:51.933Z,5
2018-04-25T18:42:14.048Z,5
2018-04-25T18:43:35.643Z,5
2018-04-25T18:44:57.858Z,5
2018-04-25T18:46:19.721Z,5
2018-04-25T18:47:41.591Z,5
2018-04-25T18:49:03.446Z,0
2018-04-25T18:50:25.611Z,0
2018-04-25T18:51:47.730Z,0
2018-04-25T18:53:09.870Z,0
2018-04-25T18:54:31.755Z,0
2018-04-25T18:55:53.888Z,0
2018-04-25T18:57:15.719Z,0
2018-04-25T18:58:37.603Z,0
2018-04-25T18:59:59.731Z,0
2018-04-25T19:01:21.848Z,0
2018-04-25T19:02:43.690Z,0
2018-04-25T19:04:05.830Z,0
2018-04-25T19:05:27.678Z,0
2018-04-25T19:06:49.801Z,0
2018-04-25T19:08:11.923Z,0
2018-04-25T19:09:34.083Z,0
2018-04-25T19:10:56.204Z,0
2018-04-25T19:12:18.375Z,0
2018-04-25T19:13:40.491Z,0
2018-04-25T19:15:02.663Z,0